createdAt,value
2022-08-16T00:04:17.976Z,25.14
2022-08-16T00:09:41.824Z,25.13
2022-08-16T00:15:11.725Z,25.14
2022-08-16T00:20:34.455Z,25.12
2022-08-16T00:26:35.652Z,25.13
2022-08-16T00:31:58.639Z,25.12
2022-08-16T00:37:58.910Z,25.12
2022-08-16T00:43:16.821Z,25.12
2022-08-16T00:48:44.016Z,25.12
2022-08-16T00:54:08.240Z,25.11
2022-08-16T00:59:38.907Z,25.09
2022-08-16T01:05:16.803Z,25.07
2022-08-16T01:10:40.967Z,25.04
2022-08-16T01:16:21.859Z,25.03
2022-08-16T01:22:49.778Z,25.01
2022-08-16T01:27:45.825Z,24.98
2022-08-16T01:33:14.660Z,24.96
2022-08-16T01:38:40.187Z,24.95
2022-08-16T01:44:09.937Z,24.95
2022-08-16T01:49:45.490Z,24.95
2022-08-16T01:55:18.307Z,24.93
2022-08-16T02:00:40.479Z,24.92
2022-08-16T02:06:02.340Z,24.88
2022-08-16T02:11:48.256Z,24.87
2022-08-16T02:17:12.932Z,24.87
2022-08-16T02:22:46.909Z,24.87
2022-08-16T02:28:08.696Z,24.86
2022-08-16T02:33:43.717Z,24.86
2022-08-16T02:39:08.714Z,24.84
2022-08-16T02:44:30.511Z,24.82
2022-08-16T02:50:52.656Z,24.81
2022-08-16T02:55:41.266Z,24.82
2022-08-16T03:01:04.046Z,24.80
2022-08-16T03:06:42.067Z,24.80
2022-08-16T03:12:05.796Z,24.79
2022-08-16T03:17:32.353Z,24.78
2022-08-16T03:22:54.482Z,24.76
2022-08-16T03:28:18.506Z,24.75
2022-08-16T03:33:40.321Z,24.74
2022-08-16T03:39:03.524Z,24.73
2022-08-16T03:44:44.661Z,24.72
2022-08-16T03:50:26.223Z,24.72
2022-08-16T03:55:48.679Z,24.72
2022-08-16T04:01:14.446Z,24.70
2022-08-16T04:06:37.900Z,24.70
2022-08-16T04:12:00.032Z,24.69
2022-08-16T04:17:21.827Z,24.68
2022-08-16T04:22:46.103Z,24.68
2022-08-16T04:28:54.632Z,24.67
2022-08-16T04:33:59.352Z,24.66
2022-08-16T04:39:24.078Z,24.65
2022-08-16T04:44:53.656Z,24.64
2022-08-16T04:50:20.223Z,24.64
2022-08-16T04:55:43.865Z,24.63
2022-08-16T05:01:08.006Z,24.62
2022-08-16T05:06:42.386Z,24.62
2022-08-16T05:12:11.077Z,24.61
2022-08-16T05:17:33.042Z,24.60
2022-08-16T05:22:54.784Z,24.61
2022-08-16T05:28:18.808Z,24.59
2022-08-16T05:33:42.297Z,24.58
2022-08-16T05:39:08.608Z,24.58
2022-08-16T05:44:30.613Z,24.58
2022-08-16T05:49:53.507Z,24.57
2022-08-16T05:55:15.380Z,24.57
2022-08-16T06:00:37.314Z,24.56
2022-08-16T06:06:00.716Z,24.57
2022-08-16T06:11:22.830Z,24.58
2022-08-16T06:16:50.599Z,24.57
2022-08-16T06:22:37.351Z,24.39
2022-08-16T06:27:57.674Z,24.25
2022-08-16T06:33:22.799Z,24.18
2022-08-16T06:38:55.907Z,24.18
2022-08-16T06:44:21.058Z,24.21
2022-08-16T06:49:43.703Z,24.23
2022-08-16T06:55:17.461Z,24.26
2022-08-16T07:00:39.223Z,24.29
2022-08-16T07:06:05.710Z,24.34
2022-08-16T07:11:47.231Z,24.39
2022-08-16T07:17:11.340Z,24.41
2022-08-16T07:22:37.741Z,24.44
2022-08-16T07:28:01.756Z,24.46
2022-08-16T07:33:53.725Z,24.47
2022-08-16T07:39:05.389Z,24.49
2022-08-16T07:44:28.058Z,24.51
2022-08-16T07:50:57.767Z,24.51
2022-08-16T07:55:53.085Z,24.55
2022-08-16T08:01:16.598Z,24.55
2022-08-16T08:06:39.080Z,24.56
2022-08-16T08:12:05.348Z,24.58
2022-08-16T08:17:43.334Z,24.62
2022-08-16T08:23:07.981Z,24.62
2022-08-16T08:28:32.094Z,24.62
2022-08-16T08:33:56.891Z,24.64
2022-08-16T08:39:20.906Z,24.64
2022-08-16T08:44:42.824Z,24.65
2022-08-16T08:50:06.784Z,24.66
2022-08-16T08:55:28.913Z,24.68
2022-08-16T09:00:52.566Z,24.71
2022-08-16T09:06:14.288Z,24.70
2022-08-16T09:11:43.924Z,24.69
2022-08-16T09:17:21.608Z,24.70
2022-08-16T09:22:51.646Z,24.63
2022-08-16T09:29:14.043Z,24.58
2022-08-16T09:33:57.003Z,24.56
2022-08-16T09:39:19.025Z,24.56
2022-08-16T09:45:09.313Z,24.55
2022-08-16T09:50:37.278Z,24.54
2022-08-16T09:56:02.313Z,24.57
2022-08-16T10:01:24.724Z,24.57
2022-08-16T10:06:46.590Z,24.56
2022-08-16T10:12:28.238Z,24.57
2022-08-16T10:18:00.716Z,24.58
2022-08-16T10:23:23.511Z,24.61
2022-08-16T10:28:45.741Z,24.61
2022-08-16T10:34:24.056Z,24.62
2022-08-16T10:39:53.837Z,24.61
2022-08-16T10:45:18.582Z,24.61
2022-08-16T10:50:40.746Z,24.58
2022-08-16T10:56:51.451Z,24.58
2022-08-16T11:08:05.432Z,24.62
2022-08-16T11:19:05.498Z,24.77
2022-08-16T11:24:40.202Z,24.85
2022-08-16T11:30:09.260Z,24.95
2022-08-16T11:41:15.702Z,25.07
2022-08-16T11:46:44.813Z,25.13
2022-08-16T11:52:08.049Z,25.17
2022-08-16T11:57:29.929Z,25.29
2022-08-16T12:02:53.932Z,25.37
2022-08-16T12:08:15.828Z,25.45
2022-08-16T12:13:42.910Z,25.46
2022-08-16T12:19:10.691Z,25.50
2022-08-16T12:24:35.313Z,25.54
2022-08-16T12:29:58.717Z,25.56
2022-08-16T12:35:21.767Z,25.57
2022-08-16T12:40:49.383Z,25.60
2022-08-16T12:46:14.830Z,25.61
2022-08-16T12:51:58.731Z,25.62
2022-08-16T12:57:25.220Z,25.62
2022-08-16T13:02:59.909Z,25.62
2022-08-16T13:08:22.477Z,25.62
2022-08-16T13:13:54.744Z,25.60
2022-08-16T13:19:16.851Z,25.63
2022-08-16T13:24:38.876Z,25.62
2022-08-16T13:30:02.742Z,25.62
2022-08-16T13:35:55.429Z,25.62
2022-08-16T13:41:19.502Z,25.59
2022-08-16T13:46:41.909Z,25.57
2022-08-16T13:52:04.273Z,25.57
2022-08-16T13:57:53.330Z,25.57
2022-08-16T14:03:10.164Z,25.58
2022-08-16T14:08:32.592Z,25.59
2022-08-16T14:13:54.768Z,25.58
2022-08-16T14:19:22.305Z,25.59
2022-08-16T14:24:47.119Z,25.61
2022-08-16T14:30:12.052Z,25.60
2022-08-16T14:35:48.901Z,25.58
2022-08-16T14:41:12.003Z,25.56
2022-08-16T14:46:34.411Z,25.59
2022-08-16T14:52:02.088Z,25.59
2022-08-16T14:57:23.904Z,25.61
2022-08-16T15:02:53.140Z,25.67
2022-08-16T15:08:20.292Z,25.68
2022-08-16T15:13:42.256Z,25.70
2022-08-16T15:19:04.286Z,25.69
2022-08-16T15:24:26.310Z,25.67
2022-08-16T15:29:48.127Z,25.67
2022-08-16T15:35:15.446Z,25.69
2022-08-16T15:40:52.035Z,25.70
2022-08-16T15:46:54.007Z,25.73
2022-08-16T15:52:24.737Z,25.77
2022-08-16T15:57:51.463Z,25.78
2022-08-16T16:03:16.480Z,25.84
2022-08-16T16:08:41.606Z,25.84
2022-08-16T16:14:06.301Z,25.84
2022-08-16T16:19:29.178Z,25.84
2022-08-16T16:24:52.950Z,25.83
2022-08-16T16:30:37.149Z,25.84
2022-08-16T16:36:00.214Z,25.83
2022-08-16T16:41:25.537Z,25.82
2022-08-16T16:46:56.781Z,25.77
2022-08-16T16:52:31.326Z,25.70
2022-08-16T16:58:28.886Z,25.64
2022-08-16T17:03:53.605Z,25.60
2022-08-16T17:09:15.556Z,25.57
2022-08-16T17:14:42.597Z,25.55
2022-08-16T17:20:05.933Z,25.53
2022-08-16T17:25:36.799Z,25.51
2022-08-16T17:30:59.479Z,25.48
2022-08-16T17:36:36.622Z,25.46
2022-08-16T17:42:01.649Z,25.46
2022-08-16T17:47:23.421Z,25.44
2022-08-16T17:52:50.651Z,25.44
2022-08-16T17:58:22.930Z,25.42
2022-08-16T18:04:06.371Z,25.40
2022-08-16T18:09:27.551Z,25.43
2022-08-16T18:14:54.924Z,25.48
2022-08-16T18:20:42.484Z,25.53
2022-08-16T18:26:06.550Z,25.56
2022-08-16T18:31:28.406Z,25.54
2022-08-16T18:36:51.087Z,25.51
2022-08-16T18:42:15.190Z,25.54
2022-08-16T18:47:36.917Z,25.57
2022-08-16T18:53:00.888Z,25.59
2022-08-16T18:58:22.843Z,25.58
2022-08-16T19:03:44.538Z,25.55
2022-08-16T19:09:06.363Z,25.43
2022-08-16T19:14:30.249Z,25.40
2022-08-16T19:19:51.980Z,25.44
2022-08-16T19:25:13.904Z,25.46
2022-08-16T19:30:37.489Z,25.47
2022-08-16T19:35:59.875Z,25.49
2022-08-16T19:41:21.606Z,25.47
2022-08-16T19:46:45.100Z,25.47
2022-08-16T19:52:10.906Z,25.47
2022-08-16T19:57:34.074Z,25.46
2022-08-16T20:02:56.523Z,25.44
2022-08-16T20:08:19.033Z,25.43
2022-08-16T20:13:41.928Z,25.42
2022-08-16T20:19:04.688Z,25.42
2022-08-16T20:24:35.947Z,25.40
2022-08-16T20:29:58.063Z,25.39
2022-08-16T20:35:23.893Z,25.37
2022-08-16T20:40:45.728Z,25.37
2022-08-16T20:46:08.507Z,25.35
2022-08-16T20:51:30.898Z,25.35
2022-08-16T20:57:08.920Z,25.34
2022-08-16T21:02:30.627Z,25.33
2022-08-16T21:07:54.412Z,25.32
2022-08-16T21:13:22.129Z,25.31
2022-08-16T21:18:43.843Z,25.30
2022-08-16T21:24:05.819Z,25.28
2022-08-16T21:29:39.986Z,25.26
2022-08-16T21:35:11.414Z,25.25
2022-08-16T21:40:34.635Z,25.24
2022-08-16T21:46:01.182Z,25.22
2022-08-16T21:51:22.940Z,25.22
2022-08-16T21:56:44.727Z,25.20
2022-08-16T22:02:06.850Z,25.19
2022-08-16T22:07:28.683Z,25.19
2022-08-16T22:12:51.859Z,25.19
2022-08-16T22:18:14.471Z,25.17
2022-08-16T22:23:36.517Z,25.17
2022-08-16T22:29:04.724Z,25.17
2022-08-16T22:34:26.462Z,25.15
2022-08-16T22:39:48.583Z,25.15
2022-08-16T22:45:11.519Z,25.16
2022-08-16T22:50:36.439Z,25.14
2022-08-16T22:55:58.205Z,25.12
2022-08-16T23:01:23.114Z,25.12
2022-08-16T23:06:44.837Z,25.12
2022-08-16T23:12:07.645Z,25.11
2022-08-16T23:17:29.543Z,25.09
2022-08-16T23:22:58.324Z,25.09
2022-08-16T23:28:40.216Z,25.07
2022-08-16T23:34:02.130Z,25.07
2022-08-16T23:39:24.638Z,25.08
2022-08-16T23:44:57.912Z,25.07
2022-08-16T23:50:22.291Z,25.06
2022-08-16T23:55:47.635Z,25.07
